Terminal Aerodrome Forecast
Issued by NWS Cleveland, OH

Home | Current Version | Previous Version | Graphics & Text | Print | Product List | Glossary On
Versions: 1 2 3 4 5 6 7 8 9 10 11 12 13 14 15 16 17 18 19
000
FTUS41 KCLE 272300
TAFMFD
TAF
KMFD 272340Z 2800/2824 34010KT 2SM -SN BKN015 OVC025
      TEMPO 2800/2802 3/4SM -SN BKN008 OVC012
     FM280200 34010KT 3SM -SN SCT015 OVC025
      TEMPO 2802/2806 2SM -SN BKN015
     FM280600 35010KT P6SM OVC030
     FM281400 35010KT P6SM BKN035=

USA.gov is the U.S. government's official web portal to all federal, state and local government web resources and services.